Poulsbo, WA

5:47 PM PDT on September 24, 2016 (GMT -0700)
Central Market Poulsbo | | Change Station

Elev 68 ft 47.75 °N, 122.64 °W | Updated 4 seconds ago

Overcast
Overcast
64.9 °F
Feels Like 64.9 °F
N
2.0
Wind Variable Wind from East
Gusts 2.0 mph

Today
High -- | Low -- °F
--% Chance of Precip.
Yesterday
High -- | Low -- °F
Precip. -- in
Pressure 30.37 in
Visibility 10.0 miles
Clouds Overcast 10000 ft
Dew Point 49 °F
Humidity 57%
Rainfall 0.00 in
Snow Depth Not available.
7:00 AM 7:02 PM
Waning Crescent, 33% visible
METAR KPWT 250035Z AUTO 17004KT 10SM OVC100 17/10 A3037 RMK AO1
Pressure 30.37 in
Visibility 10.0 miles
Clouds Overcast 10000 ft
Dew Point 49 °F
Humidity 57%
Rainfall 0.00 in
Snow Depth Not available.
7:00 AM 7:02 PM
Waning Crescent, 33% visible
METAR KPWT 250035Z AUTO 17004KT 10SM OVC100 17/10 A3037 RMK AO1

10-Day Weather Forecast

Almanac

Astronomy

Sep. 24, 2016 Rise Set
Actual Time
Civil Twilight
Nautical Twilight
Astronomical Twilight
Moon
Length of Visible Light
Length of Day
Tomorrow will be .
, % of the Moon is Illuminated

Today's Extremes

State Highs State Lows

Community

WunderPhotos

Upload Photos

1,941,504 photos uploaded!

WunderBlog® & News

Nearby

Air Quality

  Air Quality AQ Index Pollutant
Not available.

Snow Depth

Station Depth Elevation

Earthquake Activity

City Distance Mag. Time & Date
Minimum magnitude displayed is 2.5.

Coastal Water Temperatures

Place Temperature

Stations

Nearby Weather Stations

Station Location Temp. Windchill Dew Point Humidity Wind Precip. Elev Updated Type
                   

Watches & Warnings

There are currently no watches in effect.